Airfield :







YOU CAN JOIN US ON...

 
LOGIN :

Register | Disclaimer

   EN    FR    IT 

 









Legend :    VFR   Marginal VFR   IFR   Intensive IFR   Very Intensive IFR
Visi :
Ceiling :
>= 8 km
>= 3000ft
5 to 8 km
1000 to 3000 ft
1500m to 5 km
500 to 1000 ft
800 to 1500m
200 to 500 ft
< 800m
< 200 ft
Symbols :   Thunderstorms  Fog  Heavy snow  Heavy precipitations  Wind > 20 kt






- Airport Elevation : 20 ft
- IATA code : BOS


KBOS - General Edward Lawrence Logan International

CURRENT METAR :
  • 160954Z 19005KT 10SM CLR 08/04 A3008 RMK AO2 SLP186 T00830044 $

EXPIRED METARs :
  • 160854Z 20005KT 10SM CLR 08/04 A3009 RMK AO2 SLP187 T00830039 58001 $
  • 160754Z 21005KT 10SM CLR 09/04 A3008 RMK AO2 SLP187 T00940039 $

TAF KBOS
Valid from the 16 at 09:00 until the 17 at 12:00 UTC


160843Z 1609/1712 20006KT P6SM SKC
FM162000 12013KT P6SM BKN070
FM162200 12014G22KT P6SM VCSH OVC050
FM170200 10021G31KT 3SM -RA BR OVC008
FM170400 10025G38KT 1 1/2SM +RA BR OVC008 WS020/11045KT
FM170600 10029G45KT 1/2SM +RA FG OVC008 WS020/10055KT
FM170800 09026G41KT 3/4SM +RA BR OVC008



MET'MAP, your aeronautical weather chart ! - Copyright ORBIFLY December 2007 - Disclaimer

ORBIFLY MET'MAP TEAM :

Programming & Development : Alexandra Zaïnal
Concept & Development : Baudouin d'Aumeries
Co-Development & Prog : Marc-Olivier Méhu
Technical & hardware support : Manuel Goepfert

Contact : metmap@orbifly.com




SOURCES & CREDITS :

   NOAA